createdAt,value
2023-04-02T00:01:14.180Z,1018.4
2023-04-02T00:06:14.163Z,1018.5
2023-04-02T00:11:14.060Z,1018.5
2023-04-02T00:16:14.045Z,1018.5
2023-04-02T00:21:13.978Z,1018.6
2023-04-02T00:26:13.919Z,1018.6
2023-04-02T00:31:13.853Z,1018.6
2023-04-02T00:36:13.886Z,1018.7
2023-04-02T00:41:13.764Z,1018.7
2023-04-02T00:51:16.177Z,1018.9
2023-04-02T00:56:13.673Z,1019.0
2023-04-02T01:01:13.641Z,1019.1
2023-04-02T01:06:13.569Z,1019.1
2023-04-02T01:11:13.511Z,1019.1
2023-04-02T01:16:13.502Z,1019.2
2023-04-02T01:21:13.433Z,1019.3
2023-04-02T01:26:13.439Z,1019.3
2023-04-02T01:31:13.422Z,1019.4
2023-04-02T01:36:13.353Z,1019.4
2023-04-02T01:41:13.259Z,1019.5
2023-04-02T01:46:13.236Z,1019.5
2023-04-02T01:51:13.162Z,1019.6
2023-04-02T01:56:13.118Z,1019.7
2023-04-02T02:01:12.972Z,1019.7
2023-04-02T02:06:13.718Z,1019.7
2023-04-02T02:11:12.789Z,1019.8
2023-04-02T02:16:12.790Z,1019.7
2023-04-02T02:21:12.578Z,1019.8
2023-04-02T02:31:12.409Z,1019.9
2023-04-02T02:36:12.413Z,1019.9
2023-04-02T02:41:12.231Z,1020.0
2023-04-02T02:46:12.216Z,1020.0
2023-04-02T02:51:14.515Z,1020.1
2023-04-02T02:56:12.053Z,1020.2
2023-04-02T03:01:11.995Z,1020.3
2023-04-02T03:11:11.799Z,1020.4
2023-04-02T03:21:11.721Z,1020.5
2023-04-02T03:26:11.665Z,1020.6
2023-04-02T03:31:11.579Z,1020.7
2023-04-02T03:36:11.517Z,1020.8
2023-04-02T03:41:11.427Z,1020.8
2023-04-02T03:46:11.441Z,1020.9
2023-04-02T03:51:11.298Z,1021.0
2023-04-02T03:56:11.245Z,1021.0
2023-04-02T04:01:13.156Z,1021.1
2023-04-02T04:06:15.156Z,1021.3
2023-04-02T04:11:11.117Z,1021.3
2023-04-02T04:16:13.110Z,1021.3
2023-04-02T04:21:10.914Z,1021.5
2023-04-02T04:26:10.858Z,1021.5
2023-04-02T04:31:10.767Z,1021.6
2023-04-02T04:46:12.688Z,1021.7
2023-04-02T04:51:10.580Z,1021.8
2023-04-02T04:56:18.639Z,1021.9
2023-04-02T05:01:10.516Z,1021.9
2023-04-02T05:06:12.400Z,1021.9
2023-04-02T05:11:10.346Z,1022.0
2023-04-02T05:16:10.332Z,1022.1
2023-04-02T05:31:10.041Z,1022.4
2023-04-02T05:36:10.173Z,1022.5
2023-04-02T05:41:09.837Z,1022.6
2023-04-02T05:46:09.866Z,1022.6
2023-04-02T05:51:09.707Z,1022.7
2023-04-02T05:56:09.649Z,1022.8
2023-04-02T06:01:09.584Z,1022.9
2023-04-02T06:06:09.483Z,1023.0
2023-04-02T06:11:09.410Z,1023.0
2023-04-02T06:16:09.337Z,1023.1
2023-04-02T06:21:09.272Z,1023.2
2023-04-02T06:26:09.233Z,1023.2
2023-04-02T06:31:09.168Z,1023.3
2023-04-02T06:36:09.106Z,1023.3
2023-04-02T06:41:08.976Z,1023.3
2023-04-02T06:46:08.991Z,1023.4
2023-04-02T06:51:08.880Z,1023.5
2023-04-02T06:56:08.739Z,1023.6
2023-04-02T07:01:08.700Z,1023.7
2023-04-02T07:06:08.579Z,1023.8
2023-04-02T07:11:08.527Z,1023.8
2023-04-02T07:16:08.477Z,1023.8
2023-04-02T07:21:11.032Z,1024.0
2023-04-02T07:26:08.360Z,1024.1
2023-04-02T07:31:08.300Z,1024.1
2023-04-02T07:41:08.236Z,1024.3
2023-04-02T07:46:08.165Z,1024.4
2023-04-02T07:51:08.084Z,1024.5
2023-04-02T07:56:10.038Z,1024.5
2023-04-02T08:01:07.995Z,1024.6
2023-04-02T08:06:08.001Z,1024.6
2023-04-02T08:11:07.988Z,1024.7
2023-04-02T08:16:08.003Z,1024.8
2023-04-02T08:21:07.941Z,1025.0
2023-04-02T08:26:07.894Z,1024.9
2023-04-02T08:31:07.983Z,1025.0
2023-04-02T08:36:07.922Z,1025.1
2023-04-02T08:41:07.845Z,1025.2
2023-04-02T08:46:07.896Z,1025.2
2023-04-02T08:51:07.883Z,1025.2
2023-04-02T08:56:07.938Z,1025.3
2023-04-02T09:01:07.924Z,1025.4
2023-04-02T09:06:07.969Z,1025.5
2023-04-02T09:11:08.027Z,1025.5
2023-04-02T09:16:08.072Z,1025.6
2023-04-02T09:21:10.600Z,1025.6
2023-04-02T09:26:10.601Z,1025.6
2023-04-02T09:31:08.139Z,1025.7
2023-04-02T09:36:10.220Z,1025.7
2023-04-02T09:41:08.169Z,1025.7
2023-04-02T09:46:08.243Z,1025.9
2023-04-02T09:51:08.274Z,1025.9
2023-04-02T10:01:08.434Z,1026.1
2023-04-02T10:06:08.370Z,1026.2
2023-04-02T10:11:09.565Z,1026.3
2023-04-02T10:16:08.601Z,1026.4
2023-04-02T10:21:08.476Z,1026.5
2023-04-02T10:26:08.511Z,1026.6
2023-04-02T10:31:08.653Z,1026.6
2023-04-02T10:36:08.615Z,1026.7
2023-04-02T10:41:08.623Z,1026.7
2023-04-02T10:46:10.699Z,1026.8
2023-04-02T10:51:08.683Z,1026.9
2023-04-02T10:56:08.693Z,1026.9
2023-04-02T11:01:08.748Z,1027.0
2023-04-02T11:06:10.776Z,1027.0
2023-04-02T11:11:08.785Z,1027.0
2023-04-02T11:16:08.821Z,1027.0
2023-04-02T11:21:08.873Z,1027.0
2023-04-02T11:26:08.830Z,1027.0
2023-04-02T11:31:08.917Z,1027.1
2023-04-02T11:36:08.979Z,1027.1
2023-04-02T11:41:09.011Z,1027.2
2023-04-02T11:46:09.110Z,1027.2
2023-04-02T11:51:09.115Z,1027.2
2023-04-02T11:56:09.110Z,1027.4
2023-04-02T12:01:09.191Z,1027.3
2023-04-02T12:06:11.777Z,1027.4
2023-04-02T12:11:09.302Z,1027.5
2023-04-02T12:16:09.396Z,1027.5
2023-04-02T12:21:09.446Z,1027.6
2023-04-02T12:26:09.520Z,1027.6
2023-04-02T12:31:09.653Z,1027.6
2023-04-02T12:36:09.775Z,1027.6
2023-04-02T12:41:09.746Z,1027.7
2023-04-02T12:46:09.880Z,1027.6
2023-04-02T12:51:09.939Z,1027.7
2023-04-02T12:56:10.052Z,1027.6
2023-04-02T13:01:10.157Z,1027.7
2023-04-02T13:06:10.290Z,1027.7
2023-04-02T13:21:10.598Z,1027.8
2023-04-02T13:26:12.748Z,1027.7
2023-04-02T13:31:10.873Z,1027.6
2023-04-02T13:36:10.974Z,1027.7
2023-04-02T13:41:11.089Z,1027.7
2023-04-02T13:46:11.248Z,1027.7
2023-04-02T13:51:15.311Z,1027.7
2023-04-02T13:56:11.385Z,1027.7
2023-04-02T14:01:11.625Z,1027.6
2023-04-02T14:06:11.655Z,1027.5
2023-04-02T14:11:11.738Z,1027.5
2023-04-02T14:16:11.916Z,1027.6
2023-04-02T14:21:12.026Z,1027.6
2023-04-02T14:26:12.162Z,1027.6
2023-04-02T14:31:14.364Z,1027.5
2023-04-02T14:36:12.379Z,1027.6
2023-04-02T14:41:12.512Z,1027.6
2023-04-02T14:46:12.688Z,1027.4
2023-04-02T14:51:12.796Z,1027.4
2023-04-02T14:56:12.959Z,1027.4
2023-04-02T15:01:13.131Z,1027.4
2023-04-02T15:06:13.232Z,1027.3
2023-04-02T15:11:13.363Z,1027.3
2023-04-02T15:16:13.551Z,1027.3
2023-04-02T15:21:13.571Z,1027.2
2023-04-02T15:26:13.679Z,1027.3
2023-04-02T15:31:13.824Z,1027.3
2023-04-02T15:36:14.258Z,1027.3
2023-04-02T15:41:14.051Z,1027.1
2023-04-02T15:46:14.220Z,1027.2
2023-04-02T15:51:14.309Z,1027.2
2023-04-02T15:56:14.461Z,1027.3
2023-04-02T16:01:14.641Z,1027.3
2023-04-02T16:06:14.777Z,1027.3
2023-04-02T16:11:14.893Z,1027.5
2023-04-02T16:16:15.066Z,1027.4
2023-04-02T16:21:15.120Z,1027.5
2023-04-02T16:26:15.374Z,1027.5
2023-04-02T16:31:15.534Z,1027.5
2023-04-02T16:36:15.707Z,1027.6
2023-04-02T16:41:15.799Z,1027.6
2023-04-02T16:56:16.195Z,1027.8
2023-04-02T17:06:16.374Z,1027.9
2023-04-02T17:11:16.498Z,1027.9
2023-04-02T17:16:16.641Z,1027.8
2023-04-02T17:21:16.730Z,1027.9
2023-04-02T17:26:16.838Z,1028.0
2023-04-02T17:31:18.947Z,1028.1
2023-04-02T17:36:17.072Z,1028.1
2023-04-02T17:41:17.144Z,1028.2
2023-04-02T17:51:17.497Z,1028.3
2023-04-02T17:56:17.777Z,1028.3
2023-04-02T18:01:18.266Z,1028.4
2023-04-02T18:06:18.459Z,1028.5
2023-04-02T18:11:18.675Z,1028.6
2023-04-02T18:16:18.848Z,1028.6
2023-04-02T18:21:19.013Z,1028.7
2023-04-02T18:26:19.160Z,1028.8
2023-04-02T18:36:19.427Z,1028.9
2023-04-02T18:41:19.508Z,1029.0
2023-04-02T18:46:20.771Z,1029.0
2023-04-02T18:51:23.570Z,1029.1
2023-04-02T18:56:23.620Z,1029.2
2023-04-02T19:01:19.753Z,1029.2
2023-04-02T19:06:19.633Z,1029.3
2023-04-02T19:11:19.615Z,1029.2
2023-04-02T19:16:19.649Z,1029.3
2023-04-02T19:21:19.590Z,1029.3
2023-04-02T19:26:19.653Z,1029.4
2023-04-02T19:31:19.703Z,1029.4
2023-04-02T19:41:19.793Z,1029.5
2023-04-02T19:46:19.595Z,1029.5
2023-04-02T19:51:19.474Z,1029.5
2023-04-02T19:56:19.448Z,1029.5
2023-04-02T20:01:19.383Z,1029.5
2023-04-02T20:06:19.258Z,1029.6
2023-04-02T20:11:19.193Z,1029.7
2023-04-02T20:16:19.636Z,1029.7
2023-04-02T20:21:21.025Z,1029.8
2023-04-02T20:26:19.351Z,1029.8
2023-04-02T20:31:19.003Z,1029.8
2023-04-02T20:36:18.798Z,1029.9
2023-04-02T20:41:18.759Z,1029.9
2023-04-02T20:46:18.775Z,1030.0
2023-04-02T20:51:18.568Z,1030.0
2023-04-02T20:56:18.533Z,1030.0
2023-04-02T21:01:18.457Z,1030.0
2023-04-02T21:06:18.299Z,1030.0
2023-04-02T21:11:18.202Z,1030.2
2023-04-02T21:21:17.969Z,1030.2
2023-04-02T21:26:17.917Z,1030.2
2023-04-02T21:31:17.846Z,1030.3
2023-04-02T21:36:17.690Z,1030.2
2023-04-02T21:41:17.553Z,1030.3
2023-04-02T21:46:17.451Z,1030.3
2023-04-02T21:51:19.312Z,1030.2
2023-04-02T21:56:17.436Z,1030.2
2023-04-02T22:01:26.043Z,1030.2
2023-04-02T22:06:16.953Z,1030.3
2023-04-02T22:11:16.823Z,1030.3
2023-04-02T22:16:18.681Z,1030.3
2023-04-02T22:21:16.554Z,1030.4
2023-04-02T22:26:16.417Z,1030.3
2023-04-02T22:31:16.466Z,1030.4
2023-04-02T22:36:16.116Z,1030.4
2023-04-02T22:41:16.019Z,1030.4
2023-04-02T22:46:15.981Z,1030.3
2023-04-02T22:51:15.713Z,1030.3
2023-04-02T22:56:15.574Z,1030.3
2023-04-02T23:01:15.584Z,1030.3
2023-04-02T23:06:15.381Z,1030.3
2023-04-02T23:16:15.156Z,1030.4
2023-04-02T23:21:14.862Z,1030.4
2023-04-02T23:26:16.600Z,1030.4
2023-04-02T23:31:17.541Z,1030.4
2023-04-02T23:36:14.414Z,1030.6
2023-04-02T23:41:14.288Z,1030.5
2023-04-02T23:51:13.941Z,1030.6
2023-04-02T23:56:13.762Z,1030.5
